createdAt,value
2018-03-04T00:01:17.856Z,92.30
2018-03-04T00:03:46.164Z,92.50
2018-03-04T00:06:13.715Z,92.50
2018-03-04T00:08:41.387Z,92.60
2018-03-04T00:11:08.990Z,92.80
2018-03-04T00:13:36.640Z,92.90
2018-03-04T00:16:04.208Z,93.00
2018-03-04T00:18:31.723Z,93.00
2018-03-04T00:20:59.291Z,93.00
2018-03-04T00:23:26.844Z,93.00
2018-03-04T00:25:54.432Z,93.10
2018-03-04T00:28:21.957Z,93.10
2018-03-04T00:30:49.495Z,93.20
2018-03-04T00:33:17.903Z,93.30
2018-03-04T00:35:45.459Z,93.20
2018-03-04T00:38:13.084Z,93.40
2018-03-04T00:40:41.412Z,93.40
2018-03-04T00:43:08.917Z,93.40
2018-03-04T00:45:37.221Z,93.60
2018-03-04T00:48:04.822Z,93.60
2018-03-04T00:50:32.381Z,93.70
2018-03-04T00:52:59.904Z,93.70
2018-03-04T00:55:27.472Z,93.80
2018-03-04T00:57:55.053Z,93.90
2018-03-04T01:00:22.717Z,93.90
2018-03-04T01:02:50.355Z,94.00
2018-03-04T01:05:17.910Z,94.10
2018-03-04T01:07:45.440Z,94.10
2018-03-04T01:10:13.752Z,94.10
2018-03-04T01:12:41.278Z,94.10
2018-03-04T01:15:09.614Z,94.10
2018-03-04T01:17:37.146Z,94.10
2018-03-04T01:20:04.688Z,94.10
2018-03-04T01:22:32.223Z,94.10
2018-03-04T01:25:00.626Z,94.20
2018-03-04T01:27:28.261Z,94.20
2018-03-04T01:29:55.797Z,94.10
2018-03-04T01:32:23.316Z,94.20
2018-03-04T01:34:50.845Z,94.20
2018-03-04T01:37:19.140Z,94.30
2018-03-04T01:39:46.679Z,94.30
2018-03-04T01:42:14.973Z,94.40
2018-03-04T01:44:42.525Z,94.40
2018-03-04T01:47:11.022Z,94.30
2018-03-04T01:49:38.574Z,94.30
2018-03-04T01:52:06.160Z,94.40
2018-03-04T01:54:33.713Z,94.40
2018-03-04T01:57:01.231Z,94.30
2018-03-04T01:59:29.564Z,94.40
2018-03-04T02:01:57.078Z,94.20
2018-03-04T02:04:25.424Z,94.40
2018-03-04T02:06:53.732Z,94.30
2018-03-04T02:09:22.121Z,94.40
2018-03-04T02:11:49.672Z,94.40
2018-03-04T02:14:17.945Z,94.30
2018-03-04T02:16:46.248Z,94.30
2018-03-04T02:19:13.775Z,94.30
2018-03-04T02:21:42.115Z,94.40
2018-03-04T02:24:09.641Z,94.40
2018-03-04T02:26:37.457Z,94.40
2018-03-04T02:29:05.013Z,94.40
2018-03-04T02:31:32.565Z,94.40
2018-03-04T02:34:00.083Z,94.60
2018-03-04T02:36:27.664Z,94.50
2018-03-04T02:38:55.301Z,94.50
2018-03-04T02:41:22.859Z,94.50
2018-03-04T02:43:50.389Z,94.60
2018-03-04T02:46:18.798Z,94.60
2018-03-04T02:48:46.420Z,94.60
2018-03-04T02:51:14.008Z,94.70
2018-03-04T02:53:41.598Z,94.70
2018-03-04T02:56:09.132Z,94.70
2018-03-04T02:58:36.669Z,94.70
2018-03-04T03:01:05.020Z,94.70
2018-03-04T03:03:32.601Z,94.70
2018-03-04T03:06:01.037Z,94.80
2018-03-04T03:08:28.583Z,94.80
2018-03-04T03:10:56.184Z,94.80
2018-03-04T03:13:23.690Z,94.90
2018-03-04T03:15:51.243Z,94.90
2018-03-04T03:18:18.825Z,94.90
2018-03-04T03:20:46.476Z,94.90
2018-03-04T03:23:14.000Z,95.00
2018-03-04T03:25:42.315Z,95.00
2018-03-04T03:28:09.887Z,95.00
2018-03-04T03:30:37.436Z,94.90
2018-03-04T03:33:04.994Z,94.90
2018-03-04T03:35:32.554Z,94.90
2018-03-04T03:38:00.096Z,94.90
2018-03-04T03:40:27.611Z,94.90
2018-03-04T03:42:55.233Z,95.10
2018-03-04T03:45:22.785Z,95.10
2018-03-04T03:47:50.415Z,95.20
2018-03-04T03:50:18.763Z,95.40
2018-03-04T03:52:46.335Z,95.10
2018-03-04T03:55:13.887Z,95.20
2018-03-04T03:57:41.397Z,95.20
2018-03-04T04:00:09.004Z,95.30
2018-03-04T04:02:36.624Z,95.30
2018-03-04T04:05:04.196Z,95.30
2018-03-04T04:07:31.712Z,95.40
2018-03-04T04:10:00.032Z,95.40
2018-03-04T04:12:27.544Z,95.40
2018-03-04T04:14:55.848Z,95.50
2018-03-04T04:17:23.419Z,95.40
2018-03-04T04:19:50.963Z,95.40
2018-03-04T04:22:18.520Z,95.40
2018-03-04T04:24:46.095Z,95.50
2018-03-04T04:27:13.659Z,95.50
2018-03-04T04:29:41.244Z,95.50
2018-03-04T04:32:08.760Z,95.50
2018-03-04T04:34:36.339Z,95.50
2018-03-04T04:37:03.862Z,95.60
2018-03-04T04:39:32.192Z,95.70
2018-03-04T04:41:59.936Z,95.60
2018-03-04T04:44:27.502Z,95.80
2018-03-04T04:46:55.031Z,95.70
2018-03-04T04:49:22.571Z,95.70
2018-03-04T04:51:50.173Z,95.60
2018-03-04T04:54:17.836Z,95.60
2018-03-04T04:56:45.396Z,95.70
2018-03-04T04:59:12.905Z,95.70
2018-03-04T05:01:40.447Z,95.70
2018-03-04T05:04:08.064Z,95.70
2018-03-04T05:06:35.936Z,95.80
2018-03-04T05:09:03.428Z,95.80
2018-03-04T05:11:30.968Z,95.80
2018-03-04T05:13:58.507Z,95.80
2018-03-04T05:16:26.056Z,95.80
2018-03-04T05:18:53.624Z,95.80
2018-03-04T05:21:21.176Z,95.90
2018-03-04T05:23:48.687Z,96.00
2018-03-04T05:26:16.304Z,96.00
2018-03-04T05:28:43.818Z,96.10
2018-03-04T05:31:11.368Z,96.20
2018-03-04T05:33:38.888Z,96.20
2018-03-04T05:36:06.443Z,96.30
2018-03-04T05:38:33.947Z,96.30
2018-03-04T05:41:01.489Z,96.30
2018-03-04T05:43:29.128Z,96.30
2018-03-04T05:45:56.642Z,96.30
2018-03-04T05:48:24.920Z,96.30
2018-03-04T05:50:53.249Z,96.60
2018-03-04T05:53:21.605Z,96.40
2018-03-04T05:55:49.178Z,96.30
2018-03-04T05:58:16.686Z,96.40
2018-03-04T06:00:44.228Z,96.40
2018-03-04T06:03:11.849Z,96.40
2018-03-04T06:05:39.405Z,96.40
2018-03-04T06:08:06.918Z,96.40
2018-03-04T06:10:34.468Z,96.50
2018-03-04T06:13:01.997Z,96.50
2018-03-04T06:15:29.573Z,96.50
2018-03-04T06:17:57.075Z,96.50
2018-03-04T06:20:25.391Z,96.70
2018-03-04T06:22:52.936Z,96.60
2018-03-04T06:25:20.599Z,96.60
2018-03-04T06:27:48.805Z,96.70
2018-03-04T06:30:16.437Z,96.80
2018-03-04T06:32:43.949Z,96.90
2018-03-04T06:35:11.568Z,96.90
2018-03-04T06:37:39.070Z,97.00
2018-03-04T06:40:06.684Z,97.00
2018-03-04T06:42:34.231Z,97.10
2018-03-04T06:45:01.771Z,97.10
2018-03-04T06:47:30.067Z,97.10
2018-03-04T06:49:57.632Z,97.10
2018-03-04T06:52:25.149Z,97.10
2018-03-04T06:54:52.703Z,97.10
2018-03-04T06:57:20.237Z,97.10
2018-03-04T06:59:57.732Z,97.10
2018-03-04T07:02:25.259Z,97.20
2018-03-04T07:04:52.806Z,97.30
2018-03-04T07:07:20.376Z,97.30
2018-03-04T07:09:49.238Z,97.20
2018-03-04T07:12:17.530Z,97.20
2018-03-04T07:14:45.150Z,97.20
2018-03-04T07:17:12.672Z,97.00
2018-03-04T07:19:40.367Z,97.00
2018-03-04T07:22:08.499Z,97.00
2018-03-04T07:24:36.039Z,96.90
2018-03-04T07:27:05.032Z,96.70
2018-03-04T07:29:32.562Z,96.70
2018-03-04T07:32:00.208Z,96.60
2018-03-04T07:34:27.759Z,96.90
2018-03-04T07:36:55.318Z,96.50
2018-03-04T07:39:22.876Z,96.50
2018-03-04T07:41:50.404Z,96.50
2018-03-04T07:44:18.942Z,96.60
2018-03-04T07:46:47.241Z,96.80
2018-03-04T07:49:15.563Z,96.70
2018-03-04T07:51:43.093Z,96.70
2018-03-04T07:54:10.707Z,96.70
2018-03-04T07:56:39.176Z,96.60
2018-03-04T07:59:06.714Z,96.60
2018-03-04T08:01:35.939Z,96.60
2018-03-04T08:04:03.488Z,96.60
2018-03-04T08:06:31.041Z,96.50
2018-03-04T08:08:58.560Z,96.50
2018-03-04T08:11:26.909Z,96.50
2018-03-04T08:13:54.404Z,96.50
2018-03-04T08:16:22.053Z,96.50
2018-03-04T08:18:50.391Z,96.90
2018-03-04T08:21:18.008Z,96.60
2018-03-04T08:23:45.514Z,96.60
2018-03-04T08:26:24.879Z,96.50
2018-03-04T08:28:53.187Z,96.60
2018-03-04T08:31:20.779Z,96.60
2018-03-04T08:33:48.307Z,96.50
2018-03-04T08:36:15.923Z,96.50
2018-03-04T08:38:43.436Z,96.50
2018-03-04T08:41:10.983Z,96.40
2018-03-04T08:43:38.571Z,96.30
2018-03-04T08:46:06.127Z,96.20
2018-03-04T08:48:33.663Z,96.10
2018-03-04T08:51:01.400Z,96.10
2018-03-04T08:53:29.710Z,96.00
2018-03-04T08:55:57.239Z,96.00
2018-03-04T08:58:25.587Z,95.80
2018-03-04T09:00:53.128Z,95.80
2018-03-04T09:03:20.662Z,95.70
2018-03-04T09:05:48.208Z,95.70
2018-03-04T09:08:15.744Z,95.50
2018-03-04T09:10:44.067Z,94.20
2018-03-04T09:13:21.570Z,94.20
2018-03-04T09:15:49.168Z,94.40
2018-03-04T09:18:17.464Z,94.10
2018-03-04T09:20:45.865Z,93.30
2018-03-04T09:23:13.457Z,93.20
2018-03-04T09:25:40.946Z,91.50
2018-03-04T09:28:09.371Z,92.30
2018-03-04T09:30:36.895Z,92.30
2018-03-04T09:33:05.232Z,92.50
2018-03-04T09:35:32.763Z,92.50
2018-03-04T09:38:00.317Z,92.60
2018-03-04T09:40:27.879Z,92.20
2018-03-04T09:42:55.478Z,92.40
2018-03-04T09:45:22.997Z,92.90
2018-03-04T09:47:50.660Z,93.00
2018-03-04T09:50:18.223Z,93.20
2018-03-04T09:52:45.781Z,93.40
2018-03-04T09:55:13.330Z,93.40
2018-03-04T09:57:40.908Z,92.80
2018-03-04T10:00:08.444Z,92.50
2018-03-04T10:02:35.984Z,92.40
2018-03-04T10:05:04.287Z,91.80
2018-03-04T10:07:31.808Z,91.80
2018-03-04T10:10:00.410Z,91.80
2018-03-04T10:12:28.020Z,92.30
2018-03-04T10:14:55.585Z,92.00
2018-03-04T10:17:23.215Z,91.80
2018-03-04T10:19:52.875Z,91.00
2018-03-04T10:22:21.860Z,90.70
2018-03-04T10:24:49.446Z,90.50
2018-03-04T10:27:17.741Z,82.30
2018-03-04T10:29:45.263Z,82.20
2018-03-04T10:32:12.851Z,78.70
2018-03-04T10:34:40.394Z,77.40
2018-03-04T10:37:08.727Z,78.60
2018-03-04T10:39:37.156Z,78.60
2018-03-04T10:42:05.516Z,84.70
2018-03-04T10:44:33.052Z,84.60
2018-03-04T10:47:00.607Z,82.30
2018-03-04T10:49:28.315Z,80.10
2018-03-04T10:51:56.623Z,76.10
2018-03-04T10:54:24.172Z,76.00
2018-03-04T10:56:51.754Z,74.20
2018-03-04T10:59:19.323Z,75.50
2018-03-04T11:01:51.833Z,74.30
2018-03-04T11:04:24.630Z,75.00
2018-03-04T11:06:53.129Z,74.00
2018-03-04T11:09:24.769Z,74.00
2018-03-04T11:11:52.482Z,74.30
2018-03-04T11:14:20.009Z,75.90
2018-03-04T11:16:47.546Z,77.70
2018-03-04T11:19:15.866Z,79.60
2018-03-04T11:21:43.821Z,79.60
2018-03-04T11:24:21.679Z,78.30
2018-03-04T11:26:50.075Z,75.10
2018-03-04T11:29:30.212Z,76.60
2018-03-04T11:32:08.558Z,77.50
2018-03-04T11:34:36.137Z,77.40
2018-03-04T11:37:03.723Z,74.70
2018-03-04T11:39:31.247Z,74.10
2018-03-04T11:41:58.821Z,74.20
2018-03-04T11:44:27.075Z,73.50
2018-03-04T11:46:54.689Z,73.80
2018-03-04T11:49:22.231Z,73.80
2018-03-04T11:51:49.952Z,75.60
2018-03-04T11:54:17.493Z,74.40
2018-03-04T11:56:45.912Z,75.40
2018-03-04T11:59:13.546Z,76.40
2018-03-04T12:01:41.867Z,75.40
2018-03-04T12:04:09.394Z,76.40
2018-03-04T12:06:36.956Z,75.40
2018-03-04T12:09:04.515Z,74.90
2018-03-04T12:11:32.222Z,76.80
2018-03-04T12:13:59.770Z,77.50
2018-03-04T12:16:27.793Z,78.50
2018-03-04T12:18:56.597Z,78.30
2018-03-04T12:21:24.145Z,78.30
2018-03-04T12:23:51.894Z,78.50
2018-03-04T12:26:19.441Z,78.80
2018-03-04T12:28:47.730Z,79.00
2018-03-04T12:31:16.039Z,79.40
2018-03-04T12:33:43.584Z,79.30
2018-03-04T12:36:11.131Z,79.30
2018-03-04T12:38:39.536Z,79.00
2018-03-04T12:41:07.484Z,79.00
2018-03-04T12:43:36.855Z,79.50
2018-03-04T12:46:05.184Z,80.40
2018-03-04T12:48:32.753Z,80.30
2018-03-04T12:51:00.334Z,79.70
2018-03-04T12:53:27.876Z,80.20
2018-03-04T12:55:55.470Z,80.10
2018-03-04T12:58:23.762Z,79.40
2018-03-04T13:00:52.087Z,79.60
2018-03-04T13:03:19.602Z,79.50
2018-03-04T13:05:48.490Z,79.80
2018-03-04T13:08:16.888Z,79.50
2018-03-04T13:10:44.436Z,79.50
2018-03-04T13:13:13.484Z,79.90
2018-03-04T13:15:41.213Z,79.90
2018-03-04T13:18:08.751Z,80.00
2018-03-04T13:20:37.095Z,80.00
2018-03-04T13:23:04.625Z,80.00
2018-03-04T13:25:32.276Z,79.90
2018-03-04T13:27:59.861Z,79.60
2018-03-04T13:30:27.447Z,79.40
2018-03-04T13:32:54.993Z,79.80
2018-03-04T13:35:22.506Z,80.00
2018-03-04T13:37:50.988Z,79.80
2018-03-04T13:40:18.578Z,79.70
2018-03-04T13:42:46.120Z,79.90
2018-03-04T13:45:13.635Z,80.00
2018-03-04T13:47:42.043Z,79.70
2018-03-04T13:50:09.548Z,79.70
2018-03-04T13:52:37.254Z,80.00
2018-03-04T13:55:05.652Z,79.80
2018-03-04T13:57:33.208Z,79.70
2018-03-04T14:00:02.371Z,80.30
2018-03-04T14:02:30.735Z,80.40
2018-03-04T14:04:58.788Z,80.20
2018-03-04T14:07:26.348Z,80.70
2018-03-04T14:09:54.009Z,80.70
2018-03-04T14:12:21.632Z,80.80
2018-03-04T14:14:49.188Z,80.70
2018-03-04T14:17:16.740Z,80.60
2018-03-04T14:19:44.380Z,80.60
2018-03-04T14:22:12.692Z,80.80
2018-03-04T14:24:40.250Z,80.70
2018-03-04T14:27:07.803Z,81.10
2018-03-04T14:29:35.313Z,81.00
2018-03-04T14:32:04.381Z,81.10
2018-03-04T14:34:31.924Z,81.00
2018-03-04T14:36:59.496Z,81.00
2018-03-04T14:39:27.057Z,81.00
2018-03-04T14:41:54.632Z,80.70
2018-03-04T14:44:22.161Z,80.70
2018-03-04T14:46:49.741Z,80.40
2018-03-04T14:49:17.271Z,80.10
2018-03-04T14:51:44.832Z,79.80
2018-03-04T14:54:12.357Z,79.60
2018-03-04T14:56:40.011Z,79.40
2018-03-04T14:59:07.554Z,79.20
2018-03-04T15:01:35.128Z,79.20
2018-03-04T15:04:02.663Z,78.80
2018-03-04T15:06:30.329Z,79.20
2018-03-04T15:08:57.854Z,78.70
2018-03-04T15:11:25.419Z,78.70
2018-03-04T15:13:52.937Z,78.50
2018-03-04T15:16:21.270Z,78.80
2018-03-04T15:18:48.800Z,78.80
2018-03-04T15:21:16.388Z,78.70
2018-03-04T15:23:43.960Z,78.40
2018-03-04T15:26:12.540Z,78.50
2018-03-04T15:28:40.094Z,78.90
2018-03-04T15:31:07.730Z,78.70
2018-03-04T15:33:35.277Z,79.00
2018-03-04T15:36:03.675Z,79.80
2018-03-04T15:38:31.236Z,79.70
2018-03-04T15:40:58.795Z,80.10
2018-03-04T15:43:26.422Z,80.70
2018-03-04T15:45:54.841Z,81.50
2018-03-04T15:48:32.295Z,81.30
2018-03-04T15:51:00.684Z,81.70
2018-03-04T15:53:28.648Z,81.70
2018-03-04T15:55:56.967Z,82.30
2018-03-04T15:58:24.613Z,82.10
2018-03-04T16:00:52.285Z,82.30
2018-03-04T16:03:19.807Z,82.30
2018-03-04T16:05:49.866Z,82.50
2018-03-04T16:08:17.382Z,82.50
2018-03-04T16:10:45.780Z,83.10
2018-03-04T16:13:14.303Z,83.00
2018-03-04T16:15:41.868Z,83.40
2018-03-04T16:18:09.855Z,83.60
2018-03-04T16:20:38.363Z,84.40
2018-03-04T16:23:05.887Z,83.80
2018-03-04T16:25:33.643Z,84.00
2018-03-04T16:28:01.240Z,84.10
2018-03-04T16:30:29.573Z,84.40
2018-03-04T16:32:57.087Z,84.40
2018-03-04T16:35:24.628Z,84.70
2018-03-04T16:37:53.388Z,84.30
2018-03-04T16:40:21.016Z,84.20
2018-03-04T16:42:48.534Z,84.20
2018-03-04T16:45:18.619Z,84.60
2018-03-04T16:47:46.123Z,84.40
2018-03-04T16:50:13.692Z,84.40
2018-03-04T16:52:41.240Z,84.50
2018-03-04T16:55:09.608Z,85.00
2018-03-04T16:57:39.814Z,84.90
2018-03-04T17:00:08.164Z,84.90
2018-03-04T17:02:35.694Z,84.90
2018-03-04T17:05:03.692Z,85.00
2018-03-04T17:07:31.314Z,85.20
2018-03-04T17:09:59.764Z,85.60
2018-03-04T17:12:27.408Z,85.60
2018-03-04T17:14:55.065Z,86.10
2018-03-04T17:17:22.668Z,86.60
2018-03-04T17:19:50.385Z,86.70
2018-03-04T17:22:17.920Z,87.50
2018-03-04T17:24:45.466Z,87.80
2018-03-04T17:27:13.066Z,88.20
2018-03-04T17:29:41.140Z,88.70
2018-03-04T17:32:08.653Z,88.80
2018-03-04T17:34:36.232Z,88.00
2018-03-04T17:37:03.803Z,88.30
2018-03-04T17:39:31.361Z,88.80
2018-03-04T17:41:58.959Z,88.70
2018-03-04T17:44:27.245Z,89.10
2018-03-04T17:46:55.554Z,87.70
2018-03-04T17:49:23.217Z,87.70
2018-03-04T17:51:50.770Z,87.90
2018-03-04T17:54:18.307Z,87.70
2018-03-04T17:56:47.635Z,87.60
2018-03-04T17:59:15.263Z,87.60
2018-03-04T18:01:43.569Z,87.50
2018-03-04T18:04:11.081Z,87.40
2018-03-04T18:06:38.612Z,87.40
2018-03-04T18:09:06.286Z,87.00
2018-03-04T18:11:33.923Z,87.20
2018-03-04T18:14:01.496Z,87.00
2018-03-04T18:16:29.049Z,87.00
2018-03-04T18:18:56.740Z,87.10
2018-03-04T18:21:24.291Z,87.00
2018-03-04T18:23:51.831Z,87.20
2018-03-04T18:26:19.681Z,87.40
2018-03-04T18:28:49.429Z,88.40
2018-03-04T18:31:16.990Z,87.60
2018-03-04T18:33:44.606Z,87.90
2018-03-04T18:36:12.164Z,88.10
2018-03-04T18:38:39.729Z,88.10
2018-03-04T18:41:07.258Z,88.20
2018-03-04T18:43:35.587Z,88.30
2018-03-04T18:46:04.979Z,88.30
2018-03-04T18:48:43.403Z,88.50
2018-03-04T18:51:10.971Z,88.50
2018-03-04T18:53:38.503Z,88.50
2018-03-04T18:56:06.039Z,88.70
2018-03-04T18:58:34.842Z,88.80
2018-03-04T19:01:02.518Z,88.90
2018-03-04T19:03:30.039Z,88.80
2018-03-04T19:06:00.470Z,88.90
2018-03-04T19:08:28.288Z,88.90
2018-03-04T19:10:58.299Z,89.10
2018-03-04T19:13:25.917Z,89.00
2018-03-04T19:15:54.314Z,88.90
2018-03-04T19:18:21.960Z,88.80
2018-03-04T19:20:49.515Z,88.80
2018-03-04T19:23:17.876Z,88.70
2018-03-04T19:25:45.473Z,88.70
2018-03-04T19:28:13.044Z,88.90
2018-03-04T19:30:40.584Z,88.60
2018-03-04T19:33:08.160Z,88.80
2018-03-04T19:35:35.686Z,88.80
2018-03-04T19:38:04.088Z,89.00
2018-03-04T19:40:31.670Z,88.90
2018-03-04T19:42:59.284Z,89.10
2018-03-04T19:45:27.578Z,89.10
2018-03-04T19:47:55.116Z,89.10
2018-03-04T19:50:23.400Z,89.30
2018-03-04T19:52:51.732Z,89.30
2018-03-04T19:55:19.332Z,89.20
2018-03-04T19:57:47.722Z,89.20
2018-03-04T20:00:15.271Z,89.10
2018-03-04T20:02:43.670Z,89.10
2018-03-04T20:05:11.180Z,89.10
2018-03-04T20:07:38.758Z,90.80
2018-03-04T20:10:06.283Z,90.10
2018-03-04T20:12:33.834Z,88.50
2018-03-04T20:15:01.369Z,88.20
2018-03-04T20:17:29.025Z,88.80
2018-03-04T20:19:56.544Z,89.30
2018-03-04T20:22:24.102Z,89.40
2018-03-04T20:24:51.731Z,89.50
2018-03-04T20:27:19.308Z,89.10
2018-03-04T20:29:46.881Z,88.90
2018-03-04T20:32:14.452Z,88.70
2018-03-04T20:34:42.044Z,88.40
2018-03-04T20:37:09.876Z,88.30
2018-03-04T20:39:37.464Z,88.30
2018-03-04T20:42:05.828Z,88.20
2018-03-04T20:44:34.107Z,88.30
2018-03-04T20:47:02.424Z,88.00
2018-03-04T20:49:30.004Z,88.00
2018-03-04T20:51:57.603Z,88.10
2018-03-04T20:54:25.933Z,88.20
2018-03-04T20:56:53.490Z,88.20
2018-03-04T20:59:21.036Z,88.00
2018-03-04T21:01:48.599Z,87.90
2018-03-04T21:04:16.203Z,88.00
2018-03-04T21:06:43.763Z,88.10
2018-03-04T21:09:12.087Z,89.00
2018-03-04T21:11:39.644Z,88.20
2018-03-04T21:14:07.327Z,88.30
2018-03-04T21:16:34.917Z,88.30
2018-03-04T21:19:02.475Z,88.40
2018-03-04T21:21:30.072Z,88.40
2018-03-04T21:23:58.094Z,88.80
2018-03-04T21:26:25.730Z,88.80
2018-03-04T21:28:53.295Z,89.00
2018-03-04T21:31:20.842Z,89.20
2018-03-04T21:33:48.349Z,89.40
2018-03-04T21:36:27.745Z,89.40
2018-03-04T21:38:55.235Z,89.70
2018-03-04T21:41:22.821Z,90.00
2018-03-04T21:43:51.189Z,90.40
2018-03-04T21:46:18.750Z,90.40
2018-03-04T21:48:56.227Z,90.60
2018-03-04T21:51:23.779Z,90.90
2018-03-04T21:53:51.414Z,91.00
2018-03-04T21:56:18.950Z,91.10
2018-03-04T21:58:46.471Z,91.20
2018-03-04T22:01:14.057Z,91.10
2018-03-04T22:03:42.355Z,91.00
2018-03-04T22:06:09.918Z,91.00
2018-03-04T22:08:37.437Z,91.00
2018-03-04T22:11:05.749Z,91.40
2018-03-04T22:13:33.899Z,91.00
2018-03-04T22:16:12.970Z,91.00
2018-03-04T22:18:40.508Z,91.00
2018-03-04T22:21:08.058Z,91.10
2018-03-04T22:23:36.356Z,91.00
2018-03-04T22:26:03.887Z,91.00
2018-03-04T22:28:32.313Z,91.10
2018-03-04T22:30:59.841Z,91.10
2018-03-04T22:33:27.354Z,91.10
2018-03-04T22:35:54.896Z,91.20
2018-03-04T22:38:22.427Z,91.20
2018-03-04T22:40:50.084Z,91.20
2018-03-04T22:43:17.586Z,91.20
2018-03-04T22:45:45.146Z,91.20
2018-03-04T22:48:12.666Z,91.20
2018-03-04T22:50:40.207Z,91.20
2018-03-04T22:53:07.783Z,91.20
2018-03-04T22:55:35.327Z,91.30
2018-03-04T22:58:02.876Z,91.30
2018-03-04T23:00:31.223Z,91.50
2018-03-04T23:02:58.756Z,91.50
2018-03-04T23:05:26.304Z,91.70
2018-03-04T23:07:53.848Z,92.00
2018-03-04T23:10:21.399Z,92.10
2018-03-04T23:12:48.937Z,92.40
2018-03-04T23:15:17.249Z,92.50
2018-03-04T23:17:44.979Z,92.50
2018-03-04T23:20:13.257Z,92.50
2018-03-04T23:22:41.557Z,92.40
2018-03-04T23:25:09.063Z,92.40
2018-03-04T23:27:36.596Z,92.30
2018-03-04T23:30:04.104Z,92.30
2018-03-04T23:32:32.403Z,92.20
2018-03-04T23:34:59.961Z,92.20
2018-03-04T23:37:27.505Z,92.20
2018-03-04T23:39:55.780Z,92.30
2018-03-04T23:42:24.192Z,92.30
2018-03-04T23:44:51.692Z,92.30
2018-03-04T23:47:20.743Z,92.10
2018-03-04T23:49:48.257Z,92.10
2018-03-04T23:52:15.805Z,92.10
2018-03-04T23:54:43.330Z,92.10
2018-03-04T23:57:10.976Z,92.00
2018-03-04T23:59:38.549Z,91.90
